Time;durP1;ratioP1;P1;durP2;ratioP2;P2;SDS_P1;SDS_P2;PMS_P1;PMS_P2;Temp;Humidity;BMP_temperature;BMP_pressure;BME280_temperature;BME280_humidity;BME280_pressure;Samples;Min_cycle;Max_cycle;Signal;HPM_P1;HPM_P2
2022/10/02 00:00:54;;;;;;;24.67;5.20;;;;;;;13.32;100.00;99924.25;12195959;19;20669;-82
2022/10/02 00:05:03;;;;;;;19.70;6.00;;;;;;;13.38;100.00;99930.69;12212538;19;20026;-83
2022/10/02 00:09:09;;;;;;;19.13;4.97;;;;;;;13.40;100.00;99923.78;12209629;19;20374;-83
2022/10/02 00:13:18;;;;;;;19.95;4.97;;;;;;;13.42;100.00;99924.34;12189110;19;20007;-82
2022/10/02 00:17:28;;;;;;;19.33;5.15;;;;;;;13.43;100.00;99923.25;12210621;19;20089;-82
2022/10/02 00:21:44;;;;;;;18.13;4.50;;;;;;;13.45;100.00;99925.75;12217919;19;20468;-83
2022/10/02 00:25:56;;;;;;;15.80;4.43;;;;;;;13.48;100.00;99927.16;12189127;19;20010;-83
2022/10/02 00:29:59;;;;;;;19.55;4.95;;;;;;;13.44;100.00;99926.84;12210011;19;20438;-82
2022/10/02 00:34:29;;;;;;;14.30;4.20;;;;;;;13.49;100.00;99951.81;12188776;19;20003;-82
2022/10/02 00:38:58;;;;;;;16.83;4.53;;;;;;;13.49;100.00;99945.44;12212317;19;20829;-82
2022/10/02 00:43:30;;;;;;;18.95;4.70;;;;;;;13.51;100.00;99955.16;12196425;19;20330;-82
2022/10/02 00:47:52;;;;;;;12.27;3.83;;;;;;;13.52;100.00;99959.56;12224639;19;20071;-82
2022/10/02 00:52:28;;;;;;;13.05;4.35;;;;;;;13.58;100.00;99950.22;12198744;19;20023;-82
2022/10/02 00:56:57;;;;;;;9.73;3.50;;;;;;;13.63;100.00;99950.25;12229692;19;20035;-82
2022/10/02 01:01:07;;;;;;;12.93;5.43;;;;;;;13.65;100.00;99959.13;12187574;19;20018;-81
2022/10/02 01:05:09;;;;;;;13.48;3.47;;;;;;;13.66;100.00;99955.25;12205164;19;20010;-82
2022/10/02 01:09:11;;;;;;;12.85;4.07;;;;;;;13.65;100.00;99944.44;12208926;19;20026;-82
2022/10/02 01:13:13;;;;;;;10.07;4.35;;;;;;;13.63;100.00;99932.81;12186158;19;20483;-80
2022/10/02 01:17:30;;;;;;;16.70;3.00;;;;;;;13.54;100.00;99929.69;12209074;19;20070;-81
2022/10/02 01:21:45;;;;;;;15.70;3.60;;;;;;;13.51;100.00;99937.72;12204493;19;20010;-81
2022/10/02 01:25:46;;;;;;;17.10;3.67;;;;;;;13.43;100.00;99937.09;12201404;19;20492;-81
2022/10/02 01:29:55;;;;;;;10.13;3.03;;;;;;;13.40;100.00;99932.09;12211082;19;20014;-81
2022/10/02 01:33:56;;;;;;;16.15;3.47;;;;;;;13.41;100.00;99944.84;12198787;19;20014;-81
2022/10/02 01:38:02;;;;;;;13.90;3.63;;;;;;;13.40;100.00;99951.47;12218667;19;20017;-81
2022/10/02 01:42:03;;;;;;;14.85;3.80;;;;;;;13.43;100.00;99966.72;12214690;19;20006;-81
2022/10/02 01:46:31;;;;;;;11.75;3.33;;;;;;;13.42;100.00;99978.88;12197448;19;20641;-81
2022/10/02 01:50:58;;;;;;;17.35;4.15;;;;;;;13.39;100.00;99973.88;12215520;19;20665;-81
2022/10/02 01:55:08;;;;;;;10.40;3.50;;;;;;;13.43;100.00;99952.88;12195055;19;20389;-81
2022/10/02 01:59:28;;;;;;;8.70;2.72;;;;;;;13.41;100.00;99958.69;12214570;19;20502;-81
2022/10/02 02:03:48;;;;;;;9.93;2.55;;;;;;;13.39;100.00;99958.09;12222922;19;20006;-81
2022/10/02 02:08:08;;;;;;;13.80;2.80;;;;;;;13.41;100.00;99960.59;12194151;19;20018;-81
2022/10/02 02:12:23;;;;;;;13.82;3.38;;;;;;;13.42;100.00;99968.66;12257507;19;20007;-83
2022/10/02 02:16:32;;;;;;;10.85;2.95;;;;;;;13.45;100.00;99962.59;12243229;19;20082;-83
2022/10/02 02:20:43;;;;;;;9.35;3.13;;;;;;;13.45;100.00;99961.75;12238534;19;20015;-82
2022/10/02 02:24:56;;;;;;;14.52;2.60;;;;;;;13.44;100.00;99965.59;12188985;19;20606;-81
2022/10/02 02:29:02;;;;;;;;;;;;;;;13.43;100.00;99956.47;12214867;19;20014;-81
2022/10/02 02:33:10;;;;;;;11.00;3.17;;;;;;;13.45;100.00;99965.34;12205169;19;19934;-82
2022/10/02 02:37:18;;;;;;;13.82;3.08;;;;;;;13.45;100.00;99962.59;12193845;19;20003;-81
2022/10/02 02:41:25;;;;;;;9.82;2.83;;;;;;;13.45;100.00;99967.28;12210189;19;20040;-82
2022/10/02 02:45:32;;;;;;;16.65;3.17;;;;;;;13.45;100.00;99961.75;12214137;19;20007;-82
2022/10/02 02:49:33;;;;;;;11.32;3.85;;;;;;;13.45;100.00;99958.97;12191768;19;20085;-82
2022/10/02 02:53:50;;;;;;;9.82;3.55;;;;;;;13.46;100.00;99957.88;12201758;19;20009;-82
2022/10/02 02:57:58;;;;;;;7.85;2.60;;;;;;;13.48;100.00;99961.22;12186744;19;20034;-82
2022/10/02 03:02:00;;;;;;;12.32;3.08;;;;;;;13.46;100.00;99968.94;12211982;19;20007;-82
2022/10/02 03:06:10;;;;;;;15.50;3.40;;;;;;;13.45;100.00;99978.38;12212333;19;20010;-81
2022/10/02 03:10:18;;;;;;;11.70;3.38;;;;;;;13.48;100.00;99980.59;12191176;19;20086;-82
2022/10/02 03:14:42;;;;;;;14.45;3.28;;;;;;;13.50;100.00;99983.91;12211283;19;20006;-82
2022/10/02 03:19:05;;;;;;;12.88;3.28;;;;;;;13.49;100.00;99968.41;12189016;19;20006;-83
2022/10/02 03:23:21;;;;;;;14.95;3.28;;;;;;;13.52;100.00;99967.06;12208511;19;20042;-81
2022/10/02 03:27:31;;;;;;;13.75;3.60;;;;;;;13.52;100.00;99954.03;12212068;19;20010;-81
2022/10/02 03:31:36;;;;;;;18.60;4.25;;;;;;;13.52;100.00;99962.34;12191084;19;20007;-81
2022/10/02 03:35:39;;;;;;;24.58;6.18;;;;;;;13.52;100.00;99967.06;12212576;19;20023;-81
2022/10/02 03:39:44;;;;;;;12.50;3.50;;;;;;;13.51;100.00;99957.91;12188588;19;20018;-81
2022/10/02 03:43:46;;;;;;;19.13;3.88;;;;;;;13.52;100.00;99951.28;12206989;19;20030;-81
2022/10/02 03:47:47;;;;;;;8.65;3.97;;;;;;;13.55;100.00;99944.38;12208798;19;20491;-82
2022/10/02 03:51:49;;;;;;;10.70;4.30;;;;;;;13.58;100.00;99954.91;12190839;19;20011;-81
2022/10/02 03:56:03;;;;;;;15.45;3.97;;;;;;;13.56;100.00;99954.34;12239650;19;20014;-81
2022/10/02 04:00:24;;;;;;;12.52;3.78;;;;;;;13.61;100.00;99977.34;12269303;19;20010;-83
2022/10/02 04:04:44;;;;;;;17.70;5.10;;;;;;;13.62;100.00;99967.97;12187047;19;20002;-82
2022/10/02 04:08:55;;;;;;;15.02;4.60;;;;;;;13.62;100.00;99956.91;12211549;19;20554;-82
2022/10/02 04:13:06;;;;;;;12.55;3.78;;;;;;;13.63;100.00;99972.41;12187504;19;20022;-82
2022/10/02 04:17:19;;;;;;;20.52;4.97;;;;;;;13.66;100.00;99974.63;12210741;19;20029;-81
2022/10/02 04:21:26;;;;;;;19.08;5.15;;;;;;;13.65;100.00;99975.75;12211057;19;20006;-81
2022/10/02 04:25:38;;;;;;;16.92;5.20;;;;;;;13.63;100.00;99975.16;12188435;19;20010;-81
2022/10/02 04:29:48;;;;;;;21.15;5.45;;;;;;;13.60;100.00;99980.41;12212772;19;20066;-82
2022/10/02 04:33:50;;;;;;;21.65;5.68;;;;;;;13.55;100.00;99975.66;12189870;19;20003;-82
2022/10/02 04:37:57;;;;;;;14.10;5.13;;;;;;;13.56;100.00;99970.94;12212845;19;20010;-82
2022/10/02 04:42:14;;;;;;;13.48;5.50;;;;;;;13.55;100.00;99964.59;12210002;19;20018;-80
2022/10/02 04:46:40;;;;;;;21.35;7.35;;;;;;;13.52;100.00;99972.59;12190161;19;20007;-82
2022/10/02 04:51:03;;;;;;;21.58;6.47;;;;;;;13.47;100.00;99970.59;12212281;19;20115;-81
2022/10/02 04:55:37;;;;;;;21.83;5.80;;;;;;;13.48;100.00;99977.00;12187880;19;20415;-81
2022/10/02 04:59:57;;;;;;;;;;;;;;;13.46;100.00;99968.94;12209702;19;20018;-81
2022/10/02 05:04:05;;;;;;;22.45;6.65;;;;;;;13.48;100.00;99971.47;12188345;19;19943;-82
2022/10/02 05:08:31;;;;;;;17.92;6.07;;;;;;;13.48;100.00;99969.53;12225777;19;20411;-83
2022/10/02 05:12:37;;;;;;;20.30;6.10;;;;;;;13.43;100.00;99966.72;12226193;19;20019;-83
2022/10/02 05:17:19;;;;;;;25.50;6.47;;;;;;;13.44;100.00;99965.59;12202538;19;20030;-83
2022/10/02 05:22:07;;;;;;;22.48;7.28;;;;;;;13.44;100.00;99969.22;12223268;19;20014;-84
2022/10/02 05:26:34;;;;;;;16.45;6.05;;;;;;;13.39;100.00;99979.41;12123227;19;2004970;-82
2022/10/02 05:30:47;;;;;;;20.90;6.95;;;;;;;13.39;100.00;99973.88;12228451;19;20011;-84
2022/10/02 05:34:52;;;;;;;;;;;;;;;13.42;100.00;99976.94;12204048;19;20046;-82
2022/10/02 05:39:06;;;;;;;17.73;6.13;;;;;;;13.44;100.00;99979.44;12221446;19;19915;-82
2022/10/02 05:43:11;;;;;;;19.45;6.22;;;;;;;13.42;100.00;99976.94;12197883;19;20381;-81
2022/10/02 05:47:25;;;;;;;16.33;5.93;;;;;;;13.48;100.00;99982.53;12220565;19;20006;-83
2022/10/02 05:51:42;;;;;;;20.83;6.75;;;;;;;13.46;100.00;99980.03;12219134;19;20011;-84
2022/10/02 05:55:51;;;;;;;18.85;6.15;;;;;;;13.50;100.00;99986.69;12198152;19;20006;-84
2022/10/02 06:00:03;;;;;;;21.02;5.63;;;;;;;13.50;100.00;99985.84;12216943;19;20030;-85
2022/10/02 06:04:34;;;;;;;15.43;5.55;;;;;;;13.53;100.00;99991.69;12198077;19;20015;-83
2022/10/02 06:08:47;;;;;;;21.00;5.78;;;;;;;13.52;100.00;100006.63;12231902;19;20010;-84
2022/10/02 06:13:01;;;;;;;23.10;6.85;;;;;;;13.53;100.00;99996.41;12205217;19;20492;-83
2022/10/02 06:17:18;;;;;;;20.23;6.13;;;;;;;13.58;100.00;100002.81;12217746;19;20011;-85
2022/10/02 06:21:35;;;;;;;18.58;5.50;;;;;;;13.61;100.00;100010.59;12216558;19;20025;-86
2022/10/02 06:25:48;;;;;;;27.23;7.35;;;;;;;13.62;100.00;100006.75;12189771;19;20022;-84
2022/10/02 06:29:58;;;;;;;19.98;6.75;;;;;;;13.57;100.00;100008.63;12207174;19;20014;-84
2022/10/02 06:34:00;;;;;;;18.17;7.40;;;;;;;13.68;100.00;100011.22;12169637;19;20451;-85
2022/10/02 06:38:30;;;;;;;17.95;6.00;;;;;;;13.68;100.00;100000.13;12220414;19;20463;-84
2022/10/02 06:42:34;;;;;;;19.75;6.55;;;;;;;13.71;100.00;100009.81;12214902;19;20030;-81
2022/10/02 06:46:54;;;;;;;18.25;6.70;;;;;;;13.72;100.00;99999.59;12200884;19;20376;-81
2022/10/02 06:51:02;;;;;;;15.52;5.88;;;;;;;13.74;100.00;99998.25;12220417;19;20372;-84
2022/10/02 06:55:41;;;;;;;21.77;6.60;;;;;;;13.77;100.00;100006.03;12195083;19;20018;-83
2022/10/02 07:00:13;;;;;;;16.88;5.72;;;;;;;13.77;100.00;100002.38;12214839;19;20037;-81
2022/10/02 07:04:21;;;;;;;21.02;6.50;;;;;;;13.83;100.00;100015.16;12193157;19;20490;-81
2022/10/02 07:08:38;;;;;;;21.13;6.38;;;;;;;13.88;100.00;100015.22;12215955;19;20023;-82
2022/10/02 07:13:01;;;;;;;16.60;5.63;;;;;;;13.85;100.00;100011.03;12201438;19;20035;-81
2022/10/02 07:17:25;;;;;;;16.08;6.80;;;;;;;13.83;100.00;100012.41;12219751;19;20029;-82
2022/10/02 07:21:33;;;;;;;11.63;5.38;;;;;;;13.87;100.00;100019.09;12215466;19;20475;-81
2022/10/02 07:25:35;;;;;;;18.15;6.13;;;;;;;13.89;100.00;100011.31;12191024;19;19998;-82
2022/10/02 07:29:45;;;;;;;25.58;6.25;;;;;;;13.95;100.00;100006.66;12216421;19;20054;-79
2022/10/02 07:34:20;;;;;;;15.43;5.93;;;;;;;13.86;100.00;100020.16;12194012;19;20034;-81
2022/10/02 07:38:44;;;;;;;16.38;5.30;;;;;;;13.89;100.00;100022.41;12213686;19;20007;-82
2022/10/02 07:43:07;;;;;;;13.88;4.63;;;;;;;13.84;100.00;100011.31;12187462;19;20015;-81
2022/10/02 07:47:36;;;;;;;16.15;5.50;;;;;;;13.81;100.00;100017.38;12215043;19;20098;-81
2022/10/02 07:51:48;;;;;;;12.90;5.10;;;;;;;13.85;100.00;100021.28;12215262;19;20010;-81
2022/10/02 07:55:52;;;;;;;14.63;4.53;;;;;;;13.81;100.00;100025.69;12190868;19;20362;-80
2022/10/02 08:00:01;;;;;;;12.30;5.18;;;;;;;13.81;100.00;100034.84;12214074;19;20010;-81
2022/10/02 08:04:28;;;;;;;16.17;4.88;;;;;;;13.84;100.00;100028.75;12190906;19;20002;-81
2022/10/02 08:08:58;;;;;;;12.07;4.28;;;;;;;13.94;100.00;100022.44;12210831;19;20771;-81
2022/10/02 08:13:06;;;;;;;12.18;4.15;;;;;;;13.96;100.00;100016.66;12188880;19;20003;-82
2022/10/02 08:17:26;;;;;;;11.98;3.97;;;;;;;13.93;100.00;100018.03;12210973;19;20017;-80
2022/10/02 08:21:36;;;;;;;10.65;3.97;;;;;;;14.03;100.00;100015.31;12214302;19;20946;-80
2022/10/02 08:25:47;;;;;;;11.95;4.97;;;;;;;14.09;100.00;100017.00;12195358;19;20023;-80
2022/10/02 08:30:02;;;;;;;10.25;4.07;;;;;;;14.18;100.00;100031.19;12222496;19;20372;-80
2022/10/02 08:34:21;;;;;;;10.55;3.78;;;;;;;14.18;100.00;100019.28;12189907;19;20439;-81
2022/10/02 08:38:41;;;;;;;10.77;3.50;;;;;;;14.23;100.00;100016.53;12214501;19;20037;-81
2022/10/02 08:42:53;;;;;;;9.50;4.60;;;;;;;14.31;100.00;100013.25;12189607;19;20014;-80
2022/10/02 08:47:20;;;;;;;14.05;3.55;;;;;;;14.39;100.00;100004.41;12215573;19;21400;-81
2022/10/02 08:51:56;;;;;;;6.63;3.03;;;;;;;14.43;100.00;100002.78;12212271;19;20002;-82
2022/10/02 08:56:22;;;;;;;7.75;3.45;;;;;;;14.37;100.00;100017.72;12182138;19;20470;-81
2022/10/02 09:00:46;;;;;;;8.20;3.13;;;;;;;14.34;100.00;100029.34;12228066;19;20026;-80
2022/10/02 09:05:21;;;;;;;4.93;3.22;;;;;;;14.28;100.00;100027.66;12235572;19;20007;-78
2022/10/02 09:09:53;;;;;;;5.05;3.22;;;;;;;14.25;100.00;100026.25;12225850;19;20010;-81
2022/10/02 09:14:09;;;;;;;8.05;3.22;;;;;;;14.22;100.00;100021.25;12198132;19;20030;-81
2022/10/02 09:18:17;;;;;;;8.20;3.08;;;;;;;14.20;100.00;100036.47;12217565;19;20038;-81
2022/10/02 09:22:30;;;;;;;6.13;2.50;;;;;;;14.18;100.00;100027.59;12192571;19;20003;-82
2022/10/02 09:26:58;;;;;;;8.35;3.13;;;;;;;14.21;100.00;100036.19;12211142;19;20368;-82
2022/10/02 09:31:39;;;;;;;6.35;2.60;;;;;;;14.16;100.00;100010.38;12190375;19;20039;-80
2022/10/02 09:36:03;;;;;;;8.27;2.88;;;;;;;14.20;100.00;100017.91;12213439;19;20378;-82
2022/10/02 09:40:24;;;;;;;4.95;2.58;;;;;;;14.23;100.00;100024.84;12189002;19;21669;-80
2022/10/02 09:44:44;;;;;;;6.45;3.03;;;;;;;14.33;100.00;100024.91;12212311;19;20006;-81
2022/10/02 09:48:55;;;;;;;5.72;2.42;;;;;;;14.45;100.00;100031.03;12225677;19;19999;-81
2022/10/02 09:53:22;;;;;;;4.10;2.20;;;;;;;14.48;100.00;100036.06;12277346;19;19998;-79
2022/10/02 09:57:34;;;;;;;5.80;2.28;;;;;;;14.43;100.00;100030.50;12258816;19;20012;-82
2022/10/02 10:01:53;;;;;;;5.32;2.15;;;;;;;14.40;100.00;100036.59;12199490;19;20499;-83
2022/10/02 10:06:08;;;;;;;4.18;1.95;;;;;;;14.39;100.00;100032.13;12218334;19;20042;-84
2022/10/02 10:10:28;;;;;;;4.47;1.88;;;;;;;14.43;100.00;100024.13;12193691;19;20006;-83
2022/10/02 10:14:51;;;;;;;4.88;1.83;;;;;;;14.36;100.00;100027.13;12220658;19;20034;-81
2022/10/02 10:19:05;;;;;;;4.38;2.15;;;;;;;14.27;100.00;100028.75;12197190;19;20114;-82
2022/10/02 10:23:25;;;;;;;6.15;2.38;;;;;;;14.28;100.00;100019.34;12215455;19;20035;-82
2022/10/02 10:27:49;;;;;;;7.28;4.25;;;;;;;14.25;100.00;100006.84;12219440;19;20471;-83
2022/10/02 10:32:07;;;;;;;4.28;2.88;;;;;;;14.25;100.00;100008.81;12191583;19;20555;-82
2022/10/02 10:41:30;;;;;;;4.70;2.55;;;;;;;14.39;100.00;100018.28;12191997;19;20006;-83
2022/10/02 10:46:20;;;;;;;3.72;2.00;;;;;;;14.63;100.00;100037.25;12211126;19;20767;-83
2022/10/02 10:50:59;;;;;;;4.72;2.20;;;;;;;14.73;100.00;100059.50;12111475;19;2004325;-83
2022/10/02 10:55:05;;;;;;;3.08;1.50;;;;;;;14.74;100.00;100061.16;12191955;19;20039;-81
2022/10/02 10:59:30;;;;;;;4.47;1.70;;;;;;;14.78;100.00;100057.59;12216368;19;20803;-81
2022/10/02 11:03:59;;;;;;;3.13;1.92;;;;;;;14.85;100.00;100057.34;12213153;19;20010;-81
2022/10/02 11:08:13;;;;;;;4.43;1.80;;;;;;;14.99;100.00;100052.94;12199373;19;20054;-82
2022/10/02 11:12:56;;;;;;;3.40;1.70;;;;;;;15.07;100.00;100045.19;12221773;19;20010;-81
2022/10/02 11:17:04;;;;;;;;;;;;;;;15.09;100.00;100051.28;12197599;19;20460;-81
2022/10/02 11:21:26;;;;;;;4.07;1.90;;;;;;;15.17;100.00;100043.28;12220447;19;19937;-80
2022/10/02 11:25:37;;;;;;;5.00;1.92;;;;;;;15.24;100.00;100043.81;12198252;19;20006;-80
2022/10/02 11:30:02;;;;;;;3.00;1.80;;;;;;;15.22;100.00;100051.59;12220586;19;20007;-80
2022/10/02 11:34:03;;;;;;;2.90;1.50;;;;;;;15.22;100.00;100050.75;12192429;19;20099;-83
2022/10/02 11:38:44;;;;;;;5.60;1.88;;;;;;;15.19;100.00;100054.91;12218533;19;20010;-82
2022/10/02 11:43:12;;;;;;;4.55;2.72;;;;;;;15.14;100.00;100057.69;12192151;19;20013;-81
2022/10/02 11:47:14;;;;;;;6.43;2.58;;;;;;;15.14;100.00;100059.63;12214520;19;20071;-81
2022/10/02 11:51:53;;;;;;;3.88;2.22;;;;;;;15.14;100.00;100059.63;12216834;19;20026;-82
2022/10/02 11:56:22;;;;;;;2.70;2.00;;;;;;;15.00;100.00;100060.16;12197348;19;20041;-81
2022/10/02 12:00:58;;;;;;;3.17;1.80;;;;;;;15.07;100.00;100062.66;12216936;19;20010;-81
2022/10/02 12:05:23;;;;;;;5.55;1.90;;;;;;;15.10;100.00;100059.34;12192809;19;20010;-80
2022/10/02 12:09:58;;;;;;;3.38;1.95;;;;;;;15.09;100.00;100056.84;12217959;19;20062;-81
2022/10/02 12:14:20;;;;;;;6.28;1.98;;;;;;;15.18;100.00;100058.81;12191348;19;20011;-80
2022/10/02 12:18:55;;;;;;;3.47;1.90;;;;;;;15.19;100.00;100049.34;12215067;19;20006;-81
2022/10/02 12:28:14;;;;;;;4.03;2.33;;;;;;;15.09;100.00;100049.34;12190503;19;20561;-81
2022/10/02 12:32:35;;;;;;;3.97;2.15;;;;;;;15.06;100.00;100041.56;12212878;19;20050;-82
2022/10/02 12:36:57;;;;;;;4.68;2.10;;;;;;;15.13;100.00;100049.63;12214583;19;20046;-82
2022/10/02 12:41:34;;;;;;;4.68;2.30;;;;;;;15.26;100.00;100055.50;12186008;19;20018;-82
2022/10/02 12:45:57;;;;;;;3.42;2.15;;;;;;;15.20;100.00;100047.41;12208898;19;20025;-79
2022/10/02 12:50:32;;;;;;;4.22;2.33;;;;;;;15.11;100.00;100049.91;12188518;19;20010;-78
2022/10/02 12:55:09;;;;;;;2.80;1.75;;;;;;;15.07;100.00;100048.78;12211883;19;20070;-81
2022/10/02 12:59:32;;;;;;;4.28;2.03;;;;;;;15.28;100.00;100061.59;12109895;19;2004754;-81
2022/10/02 13:03:37;;;;;;;4.47;2.00;;;;;;;15.43;100.00;100057.16;12211676;19;20010;-80
2022/10/02 13:08:04;;;;;;;3.70;1.83;;;;;;;15.50;100.00;100039.13;12191130;19;20093;-81
2022/10/02 13:12:11;;;;;;;2.83;1.90;;;;;;;15.57;100.00;100040.81;12209071;19;20006;-82
2022/10/02 13:16:45;;;;;;;2.63;1.80;;;;;;;15.57;100.00;100040.81;12189287;19;20011;-82
2022/10/02 13:21:14;;;;;;;3.47;2.35;;;;;;;15.70;100.00;100055.03;12210399;19;20015;-81
2022/10/02 13:25:24;;;;;;;2.63;1.73;;;;;;;15.83;100.00;100055.56;12197243;19;20042;-82
2022/10/02 13:29:58;;;;;;;6.05;2.33;;;;;;;15.82;100.00;100051.09;12223750;19;20003;-81
2022/10/02 13:34:13;;;;;;;4.50;2.05;;;;;;;15.88;100.00;100042.50;12191625;19;20111;-82
2022/10/02 13:38:29;;;;;;;3.15;1.80;;;;;;;15.94;100.00;100048.88;12221056;19;20054;-81
2022/10/02 13:42:42;;;;;;;2.72;1.65;;;;;;;15.99;100.00;100053.59;12222449;19;20014;-83
2022/10/02 13:47:05;;;;;;;2.72;1.77;;;;;;;15.91;100.00;100055.84;12195449;19;20030;-81
2022/10/02 13:51:13;;;;;;;4.30;1.70;;;;;;;15.76;100.00;100046.66;12222262;19;20707;-81
2022/10/02 13:55:20;;;;;;;2.03;1.60;;;;;;;15.66;100.00;100050.25;12200246;19;20038;-81
2022/10/02 13:59:59;;;;;;;4.63;2.00;;;;;;;15.64;100.00;100047.72;12220564;19;19999;-80
2022/10/02 14:04:22;;;;;;;2.25;1.90;;;;;;;15.62;100.00;100044.41;12197592;19;20064;-81
2022/10/02 14:08:57;;;;;;;3.42;1.92;;;;;;;15.51;100.00;100048.31;12221371;19;20006;-82
2022/10/02 14:13:31;;;;;;;2.25;1.42;;;;;;;15.50;100.00;100044.69;12211717;19;20016;-80
2022/10/02 14:17:38;;;;;;;3.65;1.65;;;;;;;15.52;100.00;100038.03;12269561;19;20030;-79
2022/10/02 14:21:54;;;;;;;3.53;1.73;;;;;;;15.52;100.00;100052.72;12234814;19;20021;-82
2022/10/02 14:26:18;;;;;;;2.90;1.80;;;;;;;15.48;100.00;100049.69;12204608;19;20011;-82
2022/10/02 14:30:21;;;;;;;6.93;2.08;;;;;;;15.39;100.00;100047.75;12224387;19;20010;-81
2022/10/02 14:34:32;;;;;;;2.95;1.80;;;;;;;15.28;100.00;100044.94;12202063;19;20029;-81
2022/10/02 14:38:59;;;;;;;3.63;1.55;;;;;;;15.27;100.00;100059.09;12249909;19;20094;-79
2022/10/02 14:44:04;;;;;;;2.78;1.80;;;;;;;15.19;100.00;100062.41;12201486;19;20020;-81
2022/10/02 14:48:43;;;;;;;6.75;2.00;;;;;;;15.14;100.00;100065.16;12213309;19;20034;-82
2022/10/02 14:53:09;;;;;;;7.38;2.30;;;;;;;15.06;100.00;100079.59;12201886;19;20415;-81
2022/10/02 14:57:37;;;;;;;8.07;3.13;;;;;;;15.02;100.00;100084.84;12221831;19;20010;-81
2022/10/02 15:02:07;;;;;;;4.75;3.22;;;;;;;15.03;100.00;100086.53;12197463;19;20399;-79
2022/10/02 15:06:27;;;;;;;5.40;2.70;;;;;;;15.00;100.00;100090.66;12219442;19;20011;-80
2022/10/02 15:10:37;;;;;;;1.80;1.10;;;;;;;14.94;100.00;100074.28;12194701;19;20738;-81
2022/10/02 15:15:06;;;;;;;3.47;1.60;;;;;;;14.81;100.00;100082.00;12219775;19;20010;-80
2022/10/02 15:19:19;;;;;;;3.33;1.77;;;;;;;14.71;100.00;100084.72;12197235;19;20495;-80
2022/10/02 15:23:42;;;;;;;2.97;1.58;;;;;;;14.68;100.00;100084.44;12221245;19;19998;-81
2022/10/02 15:28:31;;;;;;;4.10;1.50;;;;;;;14.65;100.00;100077.50;12183253;19;20026;-80
2022/10/02 15:33:14;;;;;;;7.10;1.77;;;;;;;14.63;100.00;100078.84;12215045;19;20038;-82
2022/10/02 15:37:26;;;;;;;4.68;2.10;;;;;;;14.58;100.00;100080.53;12195098;19;20683;-81
2022/10/02 15:41:50;;;;;;;5.13;1.58;;;;;;;14.57;100.00;100076.09;12216544;19;20010;-78
2022/10/02 15:46:27;;;;;;;4.55;2.00;;;;;;;14.59;100.00;100076.63;12187114;19;20598;-83
2022/10/02 15:50:43;;;;;;;4.85;3.20;;;;;;;14.53;100.00;100087.97;12210665;19;20030;-82
2022/10/02 15:54:59;;;;;;;5.85;3.10;;;;;;;14.55;100.00;100083.00;12196407;19;20014;-81
2022/10/02 15:59:16;;;;;;;5.78;2.70;;;;;;;14.55;100.00;100085.78;12216872;19;20046;-83
2022/10/02 16:03:22;;;;;;;4.35;2.70;;;;;;;14.56;100.00;100092.97;12215633;19;20092;-81
2022/10/02 16:07:40;;;;;;;3.83;2.42;;;;;;;14.54;100.00;100090.47;12194030;19;20011;-80
2022/10/02 16:12:00;;;;;;;5.00;2.97;;;;;;;14.51;100.00;100099.31;12215928;19;20752;-82
2022/10/02 16:16:16;;;;;;;4.38;3.13;;;;;;;14.46;100.00;100115.91;12194266;19;20390;-80
2022/10/02 16:20:32;;;;;;;8.00;4.03;;;;;;;14.45;100.00;100116.16;12213619;19;20003;-82
2022/10/02 16:24:54;;;;;;;7.45;4.60;;;;;;;14.44;100.00;100117.28;12214968;19;20029;-82
2022/10/02 16:29:26;;;;;;;8.57;5.07;;;;;;;14.41;100.00;100118.66;12186597;19;20002;-82
2022/10/02 16:33:48;;;;;;;12.73;5.43;;;;;;;14.43;100.00;100124.78;12211790;19;20727;-82
2022/10/02 16:37:58;;;;;;;10.45;6.38;;;;;;;14.42;100.00;100123.09;12188754;19;20089;-81
2022/10/02 16:42:27;;;;;;;11.80;6.85;;;;;;;14.42;100.00;100134.16;12216601;19;20031;-82
2022/10/02 16:46:43;;;;;;;11.13;6.63;;;;;;;14.43;100.00;100138.63;12195684;19;20003;-82
2022/10/02 16:51:00;;;;;;;11.63;7.85;;;;;;;14.46;100.00;100140.03;12211738;19;20006;-81
2022/10/02 16:55:11;;;;;;;13.10;7.82;;;;;;;14.39;100.00;100137.47;12194202;19;20015;-83
2022/10/02 16:59:57;;;;;;;15.38;9.20;;;;;;;14.32;100.00;100142.44;12221695;19;20047;-81
2022/10/02 17:04:18;;;;;;;14.95;8.30;;;;;;;14.27;100.00;100154.31;12205830;19;20332;-82
2022/10/02 17:08:53;;;;;;;15.77;8.80;;;;;;;14.30;100.00;100152.94;12230138;19;20007;-83
2022/10/02 17:13:28;;;;;;;14.23;8.68;;;;;;;14.26;100.00;100168.44;12249000;19;20037;-79
2022/10/02 17:17:41;;;;;;;15.20;8.43;;;;;;;14.21;100.00;100174.78;12273799;19;20035;-78
2022/10/02 17:21:51;;;;;;;14.85;8.10;;;;;;;14.11;100.00;100192.16;12252567;19;20014;-82
2022/10/02 17:26:04;;;;;;;15.38;8.63;;;;;;;14.02;100.00;100201.22;12238480;19;20030;-82
2022/10/02 17:30:18;;;;;;;13.68;7.68;;;;;;;13.90;100.00;100198.63;12232308;19;20502;-83
2022/10/02 17:34:24;;;;;;;13.27;8.02;;;;;;;13.81;100.00;100209.34;12208513;19;20560;-83
2022/10/02 17:38:54;;;;;;;12.25;7.82;;;;;;;13.70;100.00;100203.94;12227577;19;20006;-81
2022/10/02 17:43:16;;;;;;;14.85;8.45;;;;;;;13.56;100.00;100211.81;12209035;19;20038;-82
2022/10/02 17:47:34;;;;;;;18.35;7.90;;;;;;;13.45;100.00;100220.03;12227980;19;20010;-82
2022/10/02 17:56:26;;;;;;;16.80;8.98;;;;;;;13.37;100.00;100225.19;12225094;19;20102;-83
2022/10/02 17:56:54;;;;;;;17.48;10.32;;;;;;;13.28;100.00;100240.56;12126198;19;2004331;-83
2022/10/02 18:01:18;;;;;;;20.83;9.38;;;;;;;13.16;100.00;100255.31;12203469;19;20017;-83
2022/10/02 18:05:35;;;;;;;17.02;8.50;;;;;;;13.06;100.00;100263.50;12224691;19;20018;-82
2022/10/02 18:09:48;;;;;;;24.55;10.68;;;;;;;12.97;100.00;100256.72;12222801;19;20010;-82
2022/10/02 18:14:08;;;;;;;17.30;9.75;;;;;;;12.86;100.00;100268.72;12202086;19;20034;-83
2022/10/02 18:18:34;;;;;;;20.38;9.75;;;;;;;12.76;100.00;100275.78;12221172;19;20002;-78
2022/10/02 18:23:09;;;;;;;21.77;9.32;;;;;;;12.67;100.00;100282.84;12198956;19;20058;-82
2022/10/02 18:27:48;;;;;;;32.90;18.48;;;;;;;12.57;100.00;100282.66;12220350;19;20015;-82
2022/10/02 18:32:21;;;;;;;25.80;11.82;;;;;;;12.48;100.00;100285.00;12197300;19;20014;-82
2022/10/02 18:36:50;;;;;;;20.58;10.50;;;;;;;12.40;100.00;100293.69;12218434;19;20015;-81
2022/10/02 18:41:18;;;;;;;20.85;9.75;;;;;;;12.32;100.00;100300.50;12193113;19;20102;-81
2022/10/02 18:45:54;;;;;;;21.27;9.48;;;;;;;12.25;100.00;100313.59;12216804;19;20630;-81
2022/10/02 18:50:21;;;;;;;27.20;10.32;;;;;;;12.20;100.00;100315.47;12198004;19;20017;-83
2022/10/02 18:55:17;;;;;;;23.80;10.43;;;;;;;12.17;100.00;100321.50;12216911;19;20006;-82
2022/10/02 18:59:44;;;;;;;25.60;12.27;;;;;;;12.13;100.00;100320.28;12109498;19;2004544;-82
2022/10/02 19:04:01;;;;;;;23.58;11.48;;;;;;;12.10;100.00;100329.91;12194120;19;20014;-82
2022/10/02 19:08:02;;;;;;;31.55;12.07;;;;;;;12.06;100.00;100340.63;12215850;19;20015;-82
2022/10/02 19:12:22;;;;;;;24.48;13.55;;;;;;;12.03;100.00;100337.50;12214802;19;20451;-82
2022/10/02 19:16:26;;;;;;;28.80;12.20;;;;;;;12.00;100.00;100347.13;12195202;19;20464;-84
2022/10/02 19:20:39;;;;;;;31.27;12.43;;;;;;;11.99;100.00;100355.69;12215046;19;20007;-81
2022/10/02 19:24:44;;;;;;;25.98;12.38;;;;;;;11.97;100.00;100357.84;12223963;19;20019;-78
2022/10/02 19:28:49;;;;;;;37.33;13.30;;;;;;;11.95;100.00;100357.22;12239943;19;20082;-79
2022/10/02 19:32:55;;;;;;;31.45;12.73;;;;;;;11.94;100.00;100359.16;12234325;19;20020;-81
2022/10/02 19:37:03;;;;;;;30.85;12.77;;;;;;;11.90;100.00;100369.03;12196009;19;20017;-80
2022/10/02 19:41:12;;;;;;;28.67;12.20;;;;;;;11.86;100.00;100371.41;12213358;19;20010;-82